Terminal Aerodrome Forecast
Issued by NWS

Home | Current Version | Previous Version | Graphics & Text | Print | Product List | Glossary On
Versions: 1 2 3 4 5 6 7 8 9 10 11 12 13 14 15 16 17 18 19 20 21 22 23 24 25 26 27 28 29 30
000
FTUS43 KGRB 192200 AAA
TAFRHI
TAF AMD
KRHI 192217Z 1922/2018 23009G18KT P6SM SCT030 BKN090
      TEMPO 1922/2001 BKN025
     FM200100 22005KT P6SM SCT040 BKN090
     FM200700 29006KT P6SM BKN040 BKN090
     FM201100 30006KT P6SM SCT030 OVC060
     FM201400 31009KT P6SM BKN030=

USA.gov is the U.S. government's official web portal to all federal, state and local government web resources and services.